createdAt,value
2019-04-03T00:01:14.419Z,48.78
2019-04-03T00:03:42.824Z,49.07
2019-04-03T00:06:11.786Z,49.10
2019-04-03T00:08:40.238Z,49.24
2019-04-03T00:11:09.543Z,49.03
2019-04-03T00:13:38.083Z,49.03
2019-04-03T00:16:06.464Z,49.13
2019-04-03T00:18:34.901Z,49.25
2019-04-03T00:21:03.384Z,49.30
2019-04-03T00:23:31.808Z,49.32
2019-04-03T00:26:00.244Z,49.35
2019-04-03T00:28:28.664Z,49.50
2019-04-03T00:30:57.102Z,49.63
2019-04-03T00:33:25.501Z,49.70
2019-04-03T00:35:54.050Z,49.75
2019-04-03T00:38:23.976Z,49.84
2019-04-03T00:40:54.291Z,49.82
2019-04-03T00:43:24.396Z,49.83
2019-04-03T00:45:54.685Z,50.02
2019-04-03T00:48:23.721Z,50.11
2019-04-03T00:50:53.311Z,50.28
2019-04-03T00:53:21.709Z,50.30
2019-04-03T00:55:50.107Z,50.39
2019-04-03T00:58:36.178Z,50.41
2019-04-03T01:01:10.060Z,50.54
2019-04-03T01:03:38.511Z,50.59
2019-04-03T01:06:07.337Z,50.63
2019-04-03T01:08:35.735Z,50.74
2019-04-03T01:11:05.056Z,50.72
2019-04-03T01:13:33.455Z,50.76
2019-04-03T01:16:02.656Z,50.84
2019-04-03T01:18:31.305Z,50.96
2019-04-03T01:21:00.174Z,51.14
2019-04-03T01:23:28.560Z,51.49
2019-04-03T01:25:57.098Z,51.49
2019-04-03T01:28:25.422Z,51.59
2019-04-03T01:30:53.812Z,51.95
2019-04-03T01:33:22.236Z,52.12
2019-04-03T01:35:50.603Z,52.21
2019-04-03T01:38:19.531Z,52.24
2019-04-03T01:40:50.212Z,52.34
2019-04-03T01:43:18.408Z,52.49
2019-04-03T01:45:46.774Z,52.51
2019-04-03T01:48:15.157Z,52.67
2019-04-03T01:50:43.904Z,53.08
2019-04-03T01:53:12.224Z,53.20
2019-04-03T01:55:40.721Z,53.59
2019-04-03T01:58:09.163Z,53.61
2019-04-03T02:00:38.164Z,53.80
2019-04-03T02:03:06.782Z,53.81
2019-04-03T02:05:36.549Z,54.06
2019-04-03T02:08:05.235Z,54.17
2019-04-03T02:10:33.629Z,54.27
2019-04-03T02:13:02.022Z,54.24
2019-04-03T02:15:30.445Z,54.25
2019-04-03T02:17:58.863Z,54.31
2019-04-03T02:20:27.574Z,54.32
2019-04-03T02:22:56.012Z,54.70
2019-04-03T02:25:24.436Z,54.73
2019-04-03T02:27:52.862Z,54.72
2019-04-03T02:30:21.452Z,55.09
2019-04-03T02:32:49.851Z,55.35
2019-04-03T02:35:18.343Z,55.42
2019-04-03T02:37:49.752Z,55.47
2019-04-03T02:40:17.024Z,55.40
2019-04-03T02:42:45.457Z,55.47
2019-04-03T02:45:14.916Z,55.61
2019-04-03T02:47:43.318Z,55.71
2019-04-03T02:50:14.359Z,55.71
2019-04-03T02:52:42.279Z,55.88
2019-04-03T02:55:10.714Z,55.85
2019-04-03T02:57:39.141Z,55.75
2019-04-03T03:00:09.096Z,55.69
2019-04-03T03:02:37.696Z,55.60
2019-04-03T03:05:06.667Z,55.80
2019-04-03T03:07:36.342Z,55.84
2019-04-03T03:10:07.274Z,55.92
2019-04-03T03:12:37.084Z,56.12
2019-04-03T03:15:11.187Z,56.20
2019-04-03T03:17:38.579Z,56.14
2019-04-03T03:20:08.092Z,56.26
2019-04-03T03:22:39.999Z,56.23
2019-04-03T03:25:08.738Z,56.18
2019-04-03T03:27:40.623Z,56.24
2019-04-03T03:30:30.391Z,56.49
2019-04-03T03:32:39.741Z,56.62
2019-04-03T03:35:14.211Z,56.48
2019-04-03T03:37:38.976Z,56.49
2019-04-03T03:40:08.226Z,56.55
2019-04-03T03:42:37.021Z,56.92
2019-04-03T03:45:06.553Z,57.06
2019-04-03T03:47:37.173Z,57.22
2019-04-03T03:50:09.851Z,57.22
2019-04-03T03:52:39.123Z,57.45
2019-04-03T03:55:08.475Z,57.40
2019-04-03T03:57:40.408Z,57.31
2019-04-03T04:00:09.516Z,57.31
2019-04-03T04:02:42.687Z,57.27
2019-04-03T04:05:11.191Z,57.27
2019-04-03T04:07:38.943Z,57.48
2019-04-03T04:10:10.899Z,57.69
2019-04-03T04:12:40.894Z,57.74
2019-04-03T04:15:10.207Z,57.80
2019-04-03T04:17:38.664Z,57.77
2019-04-03T04:20:07.538Z,57.70
2019-04-03T04:22:37.354Z,57.78
2019-04-03T04:25:07.098Z,57.79
2019-04-03T04:27:37.830Z,57.85
2019-04-03T04:30:06.809Z,57.88
2019-04-03T04:32:35.510Z,57.98
2019-04-03T04:35:05.278Z,58.24
2019-04-03T04:37:33.664Z,58.56
2019-04-03T04:40:02.232Z,58.80
2019-04-03T04:42:30.664Z,58.64
2019-04-03T04:44:59.411Z,58.50
2019-04-03T04:47:27.912Z,58.52
2019-04-03T04:49:56.392Z,58.65
2019-04-03T04:52:27.140Z,58.86
2019-04-03T04:54:54.974Z,58.83
2019-04-03T04:57:23.359Z,58.79
2019-04-03T04:59:51.753Z,59.29
2019-04-03T05:02:20.502Z,59.12
2019-04-03T05:04:48.907Z,59.09
2019-04-03T05:07:17.458Z,59.20
2019-04-03T05:09:45.781Z,59.49
2019-04-03T05:12:14.260Z,59.42
2019-04-03T05:14:42.630Z,59.34
2019-04-03T05:17:11.031Z,59.29
2019-04-03T05:19:39.459Z,59.62
2019-04-03T05:22:07.924Z,59.74
2019-04-03T05:24:36.713Z,59.64
2019-04-03T05:27:07.498Z,59.45
2019-04-03T05:29:35.433Z,59.71
2019-04-03T05:32:04.221Z,59.74
2019-04-03T05:34:32.629Z,59.66
2019-04-03T05:37:01.015Z,59.58
2019-04-03T05:39:29.500Z,59.81
2019-04-03T05:41:59.538Z,59.63
2019-04-03T05:44:28.541Z,59.39
2019-04-03T05:46:59.331Z,59.28
2019-04-03T05:49:27.360Z,59.24
2019-04-03T05:51:56.302Z,59.70
2019-04-03T05:54:24.791Z,59.72
2019-04-03T05:56:53.273Z,59.42
2019-04-03T05:59:21.670Z,59.16
2019-04-03T06:01:50.140Z,59.11
2019-04-03T06:04:18.542Z,58.90
2019-04-03T06:06:47.362Z,58.71
2019-04-03T06:09:15.897Z,58.51
2019-04-03T06:11:44.281Z,58.38
2019-04-03T06:14:12.837Z,58.27
2019-04-03T06:16:41.245Z,58.21
2019-04-03T06:19:09.644Z,58.17
2019-04-03T06:21:38.116Z,58.14
2019-04-03T06:24:06.451Z,58.15
2019-04-03T06:26:37.142Z,58.25
2019-04-03T06:29:07.314Z,58.33
2019-04-03T06:31:35.404Z,58.29
2019-04-03T06:34:06.671Z,58.07
2019-04-03T06:36:33.912Z,58.06
2019-04-03T06:39:02.302Z,57.99
2019-04-03T06:41:30.690Z,57.90
2019-04-03T06:43:59.100Z,57.74
2019-04-03T06:46:29.430Z,57.55
2019-04-03T06:48:57.633Z,57.50
2019-04-03T06:51:26.050Z,57.57
2019-04-03T06:53:54.778Z,57.52
2019-04-03T06:56:23.699Z,57.59
2019-04-03T06:58:52.106Z,57.54
2019-04-03T07:01:20.812Z,57.51
2019-04-03T07:03:49.158Z,57.63
2019-04-03T07:06:18.113Z,57.39
2019-04-03T07:08:46.517Z,57.41
2019-04-03T07:11:23.174Z,57.38
2019-04-03T07:13:45.046Z,57.05
2019-04-03T07:16:13.867Z,57.25
2019-04-03T07:18:42.378Z,56.96
2019-04-03T07:21:10.794Z,56.96
2019-04-03T07:23:39.187Z,56.94
2019-04-03T07:26:07.613Z,56.92
2019-04-03T07:28:35.999Z,57.16
2019-04-03T07:31:04.480Z,57.04
2019-04-03T07:33:32.880Z,56.76
2019-04-03T07:36:01.569Z,56.28
2019-04-03T07:38:30.229Z,56.13
2019-04-03T07:40:58.628Z,55.80
2019-04-03T07:43:27.578Z,55.73
2019-04-03T07:45:56.405Z,55.66
2019-04-03T07:48:25.143Z,55.24
2019-04-03T07:50:53.545Z,54.27
2019-04-03T07:53:22.083Z,54.48
2019-04-03T07:55:50.608Z,53.87
2019-04-03T07:58:19.346Z,54.18
2019-04-03T08:00:48.228Z,53.96
2019-04-03T08:03:16.783Z,53.70
2019-04-03T08:05:45.188Z,52.89
2019-04-03T08:08:13.571Z,53.02
2019-04-03T08:10:42.056Z,53.11
2019-04-03T08:13:10.430Z,53.08
2019-04-03T08:15:39.193Z,53.26
2019-04-03T08:18:07.602Z,53.07
2019-04-03T08:20:36.420Z,53.12
2019-04-03T08:23:06.037Z,53.17
2019-04-03T08:25:35.155Z,52.40
2019-04-03T08:28:03.574Z,52.25
2019-04-03T08:30:32.004Z,52.26
2019-04-03T08:33:02.174Z,51.65
2019-04-03T08:35:34.955Z,51.11
2019-04-03T08:38:02.795Z,51.62
2019-04-03T08:40:31.265Z,51.74
2019-04-03T08:43:00.758Z,51.86
2019-04-03T08:45:29.682Z,51.97
2019-04-03T08:47:58.169Z,52.28
2019-04-03T08:50:26.776Z,52.12
2019-04-03T08:52:56.998Z,52.34
2019-04-03T08:55:25.476Z,52.04
2019-04-03T08:57:54.236Z,51.90
2019-04-03T09:00:23.017Z,51.88
2019-04-03T09:02:51.467Z,51.64
2019-04-03T09:05:20.275Z,50.94
2019-04-03T09:07:48.941Z,50.59
2019-04-03T09:10:17.987Z,50.68
2019-04-03T09:12:46.547Z,50.26
2019-04-03T09:15:15.099Z,50.54
2019-04-03T09:17:43.607Z,50.43
2019-04-03T09:20:13.728Z,50.56
2019-04-03T09:22:42.188Z,49.92
2019-04-03T09:25:13.749Z,49.62
2019-04-03T09:27:42.233Z,49.23
2019-04-03T09:30:16.080Z,48.93
2019-04-03T09:32:44.366Z,48.56
2019-04-03T09:35:12.980Z,48.90
2019-04-03T09:37:46.041Z,48.76
2019-04-03T09:40:17.333Z,48.59
2019-04-03T09:42:45.319Z,48.84
2019-04-03T09:45:18.130Z,49.00
2019-04-03T09:47:46.774Z,48.90
2019-04-03T09:50:16.109Z,48.06
2019-04-03T09:52:48.704Z,47.81
2019-04-03T09:55:14.588Z,47.82
2019-04-03T09:57:43.399Z,47.56
2019-04-03T10:00:12.584Z,47.48
2019-04-03T10:02:41.217Z,47.45
2019-04-03T10:05:09.727Z,47.62
2019-04-03T10:07:38.318Z,47.60
2019-04-03T10:10:08.522Z,47.42
2019-04-03T10:12:37.347Z,46.59
2019-04-03T10:15:07.583Z,46.89
2019-04-03T10:17:37.462Z,46.74
2019-04-03T10:20:09.069Z,46.72
2019-04-03T10:22:37.598Z,46.63
2019-04-03T10:25:08.245Z,46.64
2019-04-03T10:27:37.127Z,46.74
2019-04-03T10:30:11.410Z,45.87
2019-04-03T10:32:40.436Z,45.46
2019-04-03T10:35:09.286Z,45.59
2019-04-03T10:37:38.051Z,45.12
2019-04-03T10:40:08.047Z,45.43
2019-04-03T10:42:39.591Z,45.51
2019-04-03T10:45:11.033Z,45.68
2019-04-03T10:47:44.152Z,45.44
2019-04-03T10:50:12.068Z,45.05
2019-04-03T10:52:40.483Z,44.81
2019-04-03T10:55:09.251Z,45.45
2019-04-03T10:57:38.158Z,45.01
2019-04-03T11:00:12.613Z,45.52
2019-04-03T11:02:41.295Z,45.61
2019-04-03T11:05:11.917Z,44.15
2019-04-03T11:07:40.394Z,44.27
2019-04-03T11:10:09.987Z,43.70
2019-04-03T11:12:38.580Z,43.36
2019-04-03T11:15:10.832Z,43.74
2019-04-03T11:17:39.910Z,43.06
2019-04-03T11:20:11.166Z,43.27
2019-04-03T11:22:42.726Z,42.84
2019-04-03T11:25:15.226Z,43.14
2019-04-03T11:27:44.558Z,42.77
2019-04-03T11:30:18.187Z,42.35
2019-04-03T11:32:45.277Z,41.92
2019-04-03T11:35:16.475Z,40.65
2019-04-03T11:37:45.080Z,40.66
2019-04-03T11:40:18.082Z,41.05
2019-04-03T11:42:49.749Z,40.57
2019-04-03T11:45:18.370Z,40.56
2019-04-03T11:47:49.141Z,40.18
2019-04-03T11:50:18.512Z,39.72
2019-04-03T11:52:46.960Z,39.43
2019-04-03T11:55:16.083Z,39.50
2019-04-03T11:57:47.368Z,39.32
2019-04-03T12:00:27.690Z,39.97
2019-04-03T12:02:56.602Z,40.62
2019-04-03T12:05:25.253Z,40.32
2019-04-03T12:07:55.777Z,40.35
2019-04-03T12:10:26.043Z,39.85
2019-04-03T12:12:54.918Z,39.97
2019-04-03T12:15:23.680Z,39.35
2019-04-03T12:17:52.299Z,39.23
2019-04-03T12:20:20.816Z,38.89
2019-04-03T12:22:49.232Z,39.62
2019-04-03T12:25:17.618Z,39.58
2019-04-03T12:27:48.896Z,39.28
2019-04-03T12:30:17.826Z,38.59
2019-04-03T12:32:50.183Z,39.14
2019-04-03T12:35:19.633Z,38.60
2019-04-03T12:37:50.708Z,37.31
2019-04-03T12:40:19.770Z,37.99
2019-04-03T12:42:50.102Z,38.01
2019-04-03T12:45:26.865Z,36.94
2019-04-03T12:47:54.577Z,37.00
2019-04-03T12:50:27.560Z,36.98
2019-04-03T12:52:56.353Z,36.82
2019-04-03T12:55:26.089Z,36.22
2019-04-03T12:57:55.725Z,35.58
2019-04-03T13:00:24.857Z,35.58
2019-04-03T13:02:53.542Z,35.04
2019-04-03T13:05:22.250Z,35.45
2019-04-03T13:07:51.084Z,34.53
2019-04-03T13:10:25.583Z,34.17
2019-04-03T13:12:56.265Z,34.35
2019-04-03T13:15:28.563Z,34.75
2019-04-03T13:17:57.095Z,34.76
2019-04-03T13:20:25.618Z,34.57
2019-04-03T13:22:56.102Z,33.75
2019-04-03T13:25:29.363Z,34.75
2019-04-03T13:27:57.871Z,33.90
2019-04-03T13:30:29.050Z,34.14
2019-04-03T13:33:01.255Z,34.10
2019-04-03T13:35:27.646Z,34.32
2019-04-03T13:37:56.652Z,33.92
2019-04-03T13:40:25.043Z,33.75
2019-04-03T13:42:53.809Z,33.68
2019-04-03T13:45:22.513Z,33.61
2019-04-03T13:47:53.290Z,33.43
2019-04-03T13:50:23.585Z,33.86
2019-04-03T13:52:55.874Z,33.21
2019-04-03T13:55:28.870Z,32.83
2019-04-03T13:57:57.304Z,32.98
2019-04-03T14:00:25.896Z,32.81
2019-04-03T14:02:56.845Z,32.81
2019-04-03T14:05:27.045Z,32.24
2019-04-03T14:07:55.558Z,32.65
2019-04-03T14:10:26.992Z,33.02
2019-04-03T14:12:54.954Z,32.93
2019-04-03T14:15:23.355Z,32.75
2019-04-03T14:17:56.480Z,33.44
2019-04-03T14:20:23.729Z,33.33
2019-04-03T14:22:53.092Z,33.02
2019-04-03T14:25:23.416Z,32.93
2019-04-03T14:27:52.210Z,33.15
2019-04-03T14:30:20.715Z,33.15
2019-04-03T14:32:51.841Z,32.92
2019-04-03T14:35:47.967Z,32.91
2019-04-03T14:37:49.385Z,32.82
2019-04-03T14:40:17.804Z,32.88
2019-04-03T14:42:48.608Z,32.49
2019-04-03T14:45:19.934Z,32.23
2019-04-03T14:47:48.583Z,32.79
2019-04-03T14:50:17.114Z,32.79
2019-04-03T14:52:47.704Z,32.33
2019-04-03T14:55:22.310Z,32.01
2019-04-03T14:57:53.761Z,31.86
2019-04-03T15:00:29.524Z,32.32
2019-04-03T15:02:58.762Z,31.79
2019-04-03T15:05:27.619Z,31.79
2019-04-03T15:07:58.739Z,31.78
2019-04-03T15:10:31.568Z,31.42
2019-04-03T15:13:03.855Z,31.42
2019-04-03T15:15:32.318Z,31.80
2019-04-03T15:18:01.088Z,31.80
2019-04-03T15:20:29.632Z,31.65
2019-04-03T15:22:58.116Z,31.60
2019-04-03T15:25:26.636Z,31.60
2019-04-03T15:27:58.654Z,31.34
2019-04-03T15:30:25.998Z,31.01
2019-04-03T15:32:54.380Z,31.01
2019-04-03T15:35:23.092Z,30.86
2019-04-03T15:37:51.532Z,31.08
2019-04-03T15:40:19.948Z,31.07
2019-04-03T15:42:48.342Z,31.28
2019-04-03T15:45:17.088Z,31.20
2019-04-03T15:47:47.285Z,30.88
2019-04-03T15:50:16.631Z,31.13
2019-04-03T15:52:48.285Z,31.10
2019-04-03T15:55:15.525Z,30.77
2019-04-03T15:57:43.923Z,31.16
2019-04-03T16:00:14.924Z,30.84
2019-04-03T16:02:45.732Z,31.31
2019-04-03T16:05:14.074Z,31.31
2019-04-03T16:07:42.784Z,30.89
2019-04-03T16:10:11.791Z,30.95
2019-04-03T16:12:42.760Z,31.33
2019-04-03T16:15:10.631Z,31.57
2019-04-03T16:17:39.680Z,31.54
2019-04-03T16:20:09.075Z,31.66
2019-04-03T16:22:38.079Z,31.91
2019-04-03T16:25:08.044Z,32.07
2019-04-03T16:27:36.665Z,31.98
2019-04-03T16:30:09.674Z,32.62
2019-04-03T16:32:38.952Z,32.82
2019-04-03T16:35:08.153Z,32.99
2019-04-03T16:37:37.219Z,33.29
2019-04-03T16:40:07.289Z,33.12
2019-04-03T16:42:35.689Z,33.67
2019-04-03T16:45:08.535Z,33.76
2019-04-03T16:47:36.831Z,33.80
2019-04-03T16:50:07.841Z,33.98
2019-04-03T16:52:37.571Z,34.21
2019-04-03T16:55:07.909Z,34.39
2019-04-03T16:57:37.064Z,34.45
2019-04-03T17:00:10.309Z,34.52
2019-04-03T17:02:38.848Z,34.62
2019-04-03T17:05:10.208Z,34.80
2019-04-03T17:07:38.497Z,35.02
2019-04-03T17:10:09.462Z,35.33
2019-04-03T17:12:37.774Z,35.31
2019-04-03T17:15:10.019Z,35.75
2019-04-03T17:17:39.015Z,35.74
2019-04-03T17:20:08.280Z,35.86
2019-04-03T17:22:39.423Z,35.95
2019-04-03T17:25:07.957Z,35.99
2019-04-03T17:27:36.458Z,36.04
2019-04-03T17:30:07.263Z,36.20
2019-04-03T17:32:35.669Z,36.44
2019-04-03T17:35:07.002Z,36.27
2019-04-03T17:37:35.541Z,36.53
2019-04-03T17:40:06.499Z,36.56
2019-04-03T17:42:35.215Z,36.72
2019-04-03T17:45:04.775Z,36.79
2019-04-03T17:47:33.196Z,36.87
2019-04-03T17:50:01.606Z,37.05
2019-04-03T17:52:30.083Z,36.84
2019-04-03T17:54:58.473Z,36.98
2019-04-03T17:57:26.865Z,37.17
2019-04-03T17:59:55.258Z,36.84
2019-04-03T18:02:24.591Z,37.28
2019-04-03T18:04:53.522Z,37.32
2019-04-03T18:07:22.001Z,37.47
2019-04-03T18:09:50.331Z,37.44
2019-04-03T18:12:21.689Z,37.56
2019-04-03T18:14:48.930Z,37.88
2019-04-03T18:17:19.272Z,37.94
2019-04-03T18:19:47.465Z,38.06
2019-04-03T18:22:15.858Z,38.19
2019-04-03T18:24:44.263Z,38.36
2019-04-03T18:27:12.653Z,38.39
2019-04-03T18:29:41.119Z,38.59
2019-04-03T18:32:09.508Z,38.55
2019-04-03T18:34:38.038Z,38.58
2019-04-03T18:37:07.541Z,38.75
2019-04-03T18:39:35.977Z,38.93
2019-04-03T18:42:04.378Z,39.09
2019-04-03T18:44:32.771Z,39.47
2019-04-03T18:47:01.193Z,39.76
2019-04-03T18:49:30.580Z,39.78
2019-04-03T18:51:59.703Z,39.75
2019-04-03T18:54:29.013Z,39.86
2019-04-03T18:56:57.404Z,39.78
2019-04-03T18:59:26.401Z,39.83
2019-04-03T19:01:54.899Z,39.76
2019-04-03T19:04:23.288Z,39.69
2019-04-03T19:06:51.684Z,39.74
2019-04-03T19:09:21.260Z,39.81
2019-04-03T19:11:51.413Z,39.78
2019-04-03T19:14:26.977Z,39.87
2019-04-03T19:16:52.523Z,39.85
2019-04-03T19:19:22.982Z,39.98
2019-04-03T19:21:50.452Z,40.02
2019-04-03T19:24:18.843Z,40.18
2019-04-03T19:26:47.244Z,40.20
2019-04-03T19:29:15.650Z,40.33
2019-04-03T19:31:44.042Z,40.43
2019-04-03T19:34:12.462Z,40.39
2019-04-03T19:36:43.048Z,40.50
2019-04-03T19:39:11.027Z,40.54
2019-04-03T19:41:40.974Z,40.55
2019-04-03T19:44:09.523Z,40.64
2019-04-03T19:46:37.944Z,40.76
2019-04-03T19:49:06.338Z,40.77
2019-04-03T19:51:35.640Z,40.93
2019-04-03T19:54:05.021Z,41.02
2019-04-03T19:56:33.407Z,41.19
2019-04-03T19:59:04.658Z,41.50
2019-04-03T20:01:31.936Z,41.51
2019-04-03T20:04:00.339Z,41.71
2019-04-03T20:06:28.741Z,41.94
2019-04-03T20:08:57.138Z,41.82
2019-04-03T20:11:25.559Z,41.86
2019-04-03T20:13:53.962Z,41.90
2019-04-03T20:16:24.278Z,42.00
2019-04-03T20:18:52.493Z,41.94
2019-04-03T20:21:20.881Z,42.14
2019-04-03T20:23:49.309Z,42.20
2019-04-03T20:26:17.713Z,42.37
2019-04-03T20:28:46.119Z,42.24
2019-04-03T20:31:14.583Z,42.38
2019-04-03T20:33:43.000Z,42.42
2019-04-03T20:36:11.378Z,42.49
2019-04-03T20:38:39.855Z,42.77
2019-04-03T20:41:08.327Z,43.04
2019-04-03T20:43:36.723Z,43.16
2019-04-03T20:46:05.266Z,43.31
2019-04-03T20:48:33.662Z,43.42
2019-04-03T20:51:02.070Z,43.86
2019-04-03T20:53:30.475Z,43.99
2019-04-03T20:55:58.885Z,44.17
2019-04-03T20:58:33.048Z,44.22
2019-04-03T21:01:06.847Z,44.31
2019-04-03T21:03:31.579Z,44.40
2019-04-03T21:06:00.811Z,44.46
2019-04-03T21:08:31.477Z,44.71
2019-04-03T21:11:02.031Z,44.76
2019-04-03T21:13:29.439Z,44.95
2019-04-03T21:15:57.839Z,45.11
2019-04-03T21:18:26.239Z,45.58
2019-04-03T21:20:55.268Z,46.01
2019-04-03T21:23:23.668Z,46.70
2019-04-03T21:25:52.220Z,47.68
2019-04-03T21:28:20.620Z,49.00
2019-04-03T21:30:49.031Z,50.45
2019-04-03T21:33:17.584Z,51.42
2019-04-03T21:35:45.989Z,52.15
2019-04-03T21:38:14.422Z,53.62
2019-04-03T21:40:42.807Z,54.75
2019-04-03T21:43:11.212Z,55.16
2019-04-03T21:45:39.614Z,55.43
2019-04-03T21:48:08.005Z,56.43
2019-04-03T21:50:36.401Z,57.04
2019-04-03T21:53:04.791Z,57.32
2019-04-03T21:55:34.745Z,57.57
2019-04-03T21:58:03.265Z,57.74
2019-04-03T22:00:52.311Z,58.00
2019-04-03T22:03:20.744Z,58.21
2019-04-03T22:05:49.127Z,58.55
2019-04-03T22:08:17.515Z,59.17
2019-04-03T22:10:45.907Z,59.65
2019-04-03T22:13:14.285Z,59.55
2019-04-03T22:15:45.267Z,59.73
2019-04-03T22:18:12.788Z,59.36
2019-04-03T22:20:41.172Z,59.35
2019-04-03T22:23:09.575Z,59.84
2019-04-03T22:25:39.463Z,60.00
2019-04-03T22:28:08.280Z,60.07
2019-04-03T22:30:36.661Z,60.37
2019-04-03T22:33:05.076Z,60.11
2019-04-03T22:35:33.460Z,60.12
2019-04-03T22:38:01.854Z,59.85
2019-04-03T22:40:30.231Z,59.87
2019-04-03T22:42:58.608Z,60.04
2019-04-03T22:45:26.992Z,60.22
2019-04-03T22:47:56.339Z,60.26
2019-04-03T22:50:25.146Z,60.51
2019-04-03T22:52:53.516Z,60.18
2019-04-03T22:55:21.907Z,60.08
2019-04-03T22:57:51.121Z,59.94
2019-04-03T23:00:19.622Z,59.97
2019-04-03T23:02:57.775Z,60.24
2019-04-03T23:05:26.150Z,60.41
2019-04-03T23:07:54.544Z,60.66
2019-04-03T23:10:22.935Z,60.63
2019-04-03T23:12:51.469Z,60.96
2019-04-03T23:15:19.967Z,61.19
2019-04-03T23:17:48.476Z,60.87
2019-04-03T23:20:16.845Z,61.13
2019-04-03T23:22:45.227Z,61.57
2019-04-03T23:25:13.617Z,61.60
2019-04-03T23:27:41.998Z,61.40
2019-04-03T23:30:11.124Z,61.37
2019-04-03T23:32:39.639Z,61.61
2019-04-03T23:35:08.299Z,61.47
2019-04-03T23:37:36.703Z,61.79
2019-04-03T23:40:06.136Z,61.92
2019-04-03T23:42:35.925Z,61.94
2019-04-03T23:45:06.903Z,62.01
2019-04-03T23:47:35.278Z,61.74
2019-04-03T23:50:06.108Z,61.78
2019-04-03T23:52:34.488Z,61.72
2019-04-03T23:55:04.758Z,61.74
2019-04-03T23:57:33.046Z,61.75
